Time,TemperatureF,DewpointF,PressureIn,WindDirection,WindDirectionDegrees,WindSpeedMPH,WindSpeedGustMPH,Humidity,HourlyPrecipIn,Conditions,Clouds,dailyrainin,SoftwareType,DateUTC
2013-01-04 00:01:00,16.8,9.7,30.00,SSE,155,0.0,5.0,73,0.00,,,0.00,WUHU216DAVISVP2,2013-01-04 05:01:00,
2013-01-04 00:03:00,16.8,9.7,30.00,SSE,160,0.0,5.0,73,0.00,,,0.00,WUHU216DAVISVP2,2013-01-04 05:03:00,
2013-01-04 00:08:00,16.8,9.7,30.00,SSE,148,0.0,5.0,73,0.00,,,0.00,WUHU216DAVISVP2,2013-01-04 05:08:00,
2013-01-04 00:13:00,16.9,9.8,30.00,SE,125,0.0,5.0,73,0.00,,,0.00,WUHU216DAVISVP2,2013-01-04 05:13:00,
2013-01-04 00:18:00,17.0,9.8,30.00,SE,137,0.0,0.0,73,0.00,,,0.00,WUHU216DAVISVP2,2013-01-04 05:18:00,
2013-01-04 00:23:00,17.0,10.2,30.00,SE,131,0.0,0.0,74,0.00,,,0.00,WUHU216DAVISVP2,2013-01-04 05:23:00,
2013-01-04 00:28:00,17.1,10.3,30.00,SSE,165,1.3,2.0,74,0.00,,,0.00,WUHU216DAVISVP2,2013-01-04 05:28:00,
2013-01-04 00:33:00,17.1,10.6,30.00,South,174,0.0,2.0,75,0.00,,,0.00,WUHU216DAVISVP2,2013-01-04 05:33:00,
2013-01-04 00:38:00,17.1,10.6,29.99,SE,131,0.0,2.0,75,0.00,,,0.00,WUHU216DAVISVP2,2013-01-04 05:38:00,
2013-01-04 00:43:00,17.2,10.3,29.99,SE,132,0.0,2.0,74,0.00,,,0.00,WUHU216DAVISVP2,2013-01-04 05:43:00,
2013-01-04 00:48:00,17.2,10.7,29.99,SE,125,0.0,1.0,75,0.00,,,0.00,WUHU216DAVISVP2,2013-01-04 05:48:00,
2013-01-04 00:53:00,17.1,10.6,29.99,ESE,121,0.0,1.0,75,0.00,,,0.00,WUHU216DAVISVP2,2013-01-04 05:53:00,
2013-01-04 00:58:00,17.1,10.6,29.99,SE,125,0.0,1.0,75,0.00,,,0.00,WUHU216DAVISVP2,2013-01-04 05:58:00,
2013-01-04 01:03:00,17.0,10.7,29.99,South,184,0.0,0.0,76,0.00,,,0.00,WUHU216DAVISVP2,2013-01-04 06:03:00,
2013-01-04 01:08:00,16.8,10.9,29.99,SSW,194,0.0,0.0,77,0.00,,,0.00,WUHU216DAVISVP2,2013-01-04 06:08:00,
2013-01-04 01:13:00,16.6,10.7,29.99,SSW,194,0.0,0.0,77,0.00,,,0.00,WUHU216DAVISVP2,2013-01-04 06:13:00,
2013-01-04 01:18:00,16.3,10.4,29.99,SSW,194,0.0,0.0,77,0.00,,,0.00,WUHU216DAVISVP2,2013-01-04 06:18:00,
2013-01-04 01:23:00,16.4,10.7,29.99,SSW,194,0.0,0.0,78,0.00,,,0.00,WUHU216DAVISVP2,2013-01-04 06:23:00,
2013-01-04 01:28:00,16.6,10.9,29.99,SSW,194,0.0,0.0,78,0.00,,,0.00,WUHU216DAVISVP2,2013-01-04 06:28:00,
2013-01-04 01:33:00,16.7,11.0,29.99,SSW,195,0.0,0.0,78,0.00,,,0.00,WUHU216DAVISVP2,2013-01-04 06:33:00,
2013-01-04 01:38:00,16.7,11.3,29.99,SW,224,0.0,0.0,79,0.00,,,0.00,WUHU216DAVISVP2,2013-01-04 06:38:00,
2013-01-04 01:43:00,16.8,11.4,29.99,ESE,103,0.0,0.0,79,0.00,,,0.00,WUHU216DAVISVP2,2013-01-04 06:43:00,
2013-01-04 01:48:00,17.0,11.9,29.99,ESE,103,0.0,0.0,80,0.00,,,0.00,WUHU216DAVISVP2,2013-01-04 06:48:00,
2013-01-04 01:53:00,17.3,12.2,30.00,ESE,102,0.0,0.0,80,0.00,,,0.00,WUHU216DAVISVP2,2013-01-04 06:53:00,
2013-01-04 01:58:00,17.5,12.4,30.00,ESE,102,0.0,0.0,80,0.00,,,0.00,WUHU216DAVISVP2,2013-01-04 06:58:00,
2013-01-04 02:03:00,17.7,12.6,30.00,ESE,102,0.0,0.0,80,0.00,,,0.00,WUHU216DAVISVP2,2013-01-04 07:03:00,
2013-01-04 02:08:00,17.6,12.5,30.00,ESE,102,0.0,0.0,80,0.00,,,0.00,WUHU216DAVISVP2,2013-01-04 07:08:00,
2013-01-04 02:13:00,17.5,12.4,30.00,ESE,103,0.0,0.0,80,0.00,,,0.00,WUHU216DAVISVP2,2013-01-04 07:13:00,
2013-01-04 02:18:00,17.4,12.3,30.00,ESE,103,0.0,0.0,80,0.00,,,0.00,WUHU216DAVISVP2,2013-01-04 07:18:00,
2013-01-04 02:23:00,17.3,12.5,30.00,SE,143,0.0,0.0,81,0.00,,,0.00,WUHU216DAVISVP2,2013-01-04 07:23:00,
2013-01-04 02:28:00,17.8,13.0,30.00,East,85,0.0,0.0,81,0.00,,,0.00,WUHU216DAVISVP2,2013-01-04 07:28:00,
2013-01-04 02:33:00,18.1,13.0,30.00,ESE,108,0.0,0.0,80,0.00,,,0.00,WUHU216DAVISVP2,2013-01-04 07:33:00,
2013-01-04 02:38:00,18.3,12.9,30.00,ESE,103,0.0,0.0,79,0.00,,,0.00,WUHU216DAVISVP2,2013-01-04 07:38:00,
2013-01-04 02:43:00,18.4,13.0,30.00,ESE,118,0.0,0.0,79,0.00,,,0.00,WUHU216DAVISVP2,2013-01-04 07:43:00,
2013-01-04 02:48:00,18.4,13.0,30.00,SSE,153,0.0,0.0,79,0.00,,,0.00,WUHU216DAVISVP2,2013-01-04 07:48:00,
2013-01-04 02:53:00,18.4,13.0,30.00,SE,125,0.0,0.0,79,0.00,,,0.00,WUHU216DAVISVP2,2013-01-04 07:53:00,
2013-01-04 02:58:00,18.4,13.0,30.00,SE,143,0.0,0.0,79,0.00,,,0.00,WUHU216DAVISVP2,2013-01-04 07:58:00,
2013-01-04 03:03:00,18.2,12.8,30.00,South,186,0.0,0.0,79,0.00,,,0.00,WUHU216DAVISVP2,2013-01-04 08:03:00,
2013-01-04 03:08:00,17.9,12.8,30.00,West,261,0.0,0.0,80,0.00,,,0.00,WUHU216DAVISVP2,2013-01-04 08:08:00,
2013-01-04 03:13:00,17.7,12.6,30.00,WNW,284,0.0,0.0,80,0.00,,,0.00,WUHU216DAVISVP2,2013-01-04 08:13:00,
2013-01-04 03:18:00,17.9,13.0,30.00,SSW,203,0.0,0.0,81,0.00,,,0.00,WUHU216DAVISVP2,2013-01-04 08:18:00,
2013-01-04 03:23:00,18.0,13.1,29.99,SSE,168,0.0,0.0,81,0.00,,,0.00,WUHU216DAVISVP2,2013-01-04 08:23:00,
2013-01-04 03:28:00,18.2,13.3,29.99,SW,224,0.0,0.0,81,0.00,,,0.00,WUHU216DAVISVP2,2013-01-04 08:28:00,
2013-01-04 03:33:00,18.4,13.3,29.99,South,176,0.0,0.0,80,0.00,,,0.00,WUHU216DAVISVP2,2013-01-04 08:33:00,
2013-01-04 03:38:00,18.3,13.4,29.99,SSE,160,2.0,2.0,81,0.00,,,0.00,WUHU216DAVISVP2,2013-01-04 08:38:00,
2013-01-04 03:43:00,18.3,13.4,29.99,South,171,0.0,2.0,81,0.00,,,0.00,WUHU216DAVISVP2,2013-01-04 08:43:00,
2013-01-04 03:48:00,18.5,13.6,29.99,SE,129,0.0,2.0,81,0.00,,,0.00,WUHU216DAVISVP2,2013-01-04 08:48:00,
2013-01-04 03:53:00,18.9,14.0,29.99,SE,130,0.0,2.0,81,0.00,,,0.00,WUHU216DAVISVP2,2013-01-04 08:53:00,
2013-01-04 03:58:00,19.2,14.3,29.99,ENE,58,1.0,1.0,81,0.00,,,0.00,WUHU216DAVISVP2,2013-01-04 08:58:00,
2013-01-04 04:03:00,19.6,14.7,29.99,East,91,1.7,2.0,81,0.00,,,0.00,WUHU216DAVISVP2,2013-01-04 09:03:00,
2013-01-04 04:08:00,19.7,14.8,29.99,East,91,0.0,2.0,81,0.00,,,0.00,WUHU216DAVISVP2,2013-01-04 09:08:00,
2013-01-04 04:13:00,19.9,15.0,29.99,ESE,106,0.0,2.0,81,0.00,,,0.00,WUHU216DAVISVP2,2013-01-04 09:13:00,
2013-01-04 04:18:00,20.1,15.2,29.99,ESE,103,0.0,2.0,81,0.00,,,0.00,WUHU216DAVISVP2,2013-01-04 09:18:00,
2013-01-04 04:23:00,20.2,15.3,29.99,ESE,120,1.1,2.0,81,0.00,,,0.00,WUHU216DAVISVP2,2013-01-04 09:23:00,
2013-01-04 04:28:00,20.1,15.2,29.99,SE,134,0.0,2.0,81,0.00,,,0.00,WUHU216DAVISVP2,2013-01-04 09:28:00,
2013-01-04 04:33:00,20.3,15.7,29.99,ESE,109,1.2,2.0,82,0.00,,,0.00,WUHU216DAVISVP2,2013-01-04 09:33:00,
2013-01-04 04:38:00,20.6,16.0,29.99,ENE,76,1.6,3.0,82,0.00,,,0.00,WUHU216DAVISVP2,2013-01-04 09:38:00,
2013-01-04 04:43:00,20.4,15.8,29.99,SSE,160,0.0,3.0,82,0.00,,,0.00,WUHU216DAVISVP2,2013-01-04 09:43:00,
2013-01-04 04:48:00,20.1,15.5,29.99,SSE,158,0.0,2.0,82,0.00,,,0.00,WUHU216DAVISVP2,2013-01-04 09:48:00,
2013-01-04 04:53:00,20.1,15.8,29.99,East,87,2.0,3.0,83,0.00,,,0.00,WUHU216DAVISVP2,2013-01-04 09:53:00,
2013-01-04 04:58:00,20.3,15.9,29.98,South,181,1.0,3.0,83,0.00,,,0.00,WUHU216DAVISVP2,2013-01-04 09:58:00,
2013-01-04 05:03:00,20.5,16.2,29.99,SW,221,1.0,3.0,83,0.00,,,0.00,WUHU216DAVISVP2,2013-01-04 10:03:00,
2013-01-04 05:08:00,20.5,16.2,29.98,SSE,150,0.0,2.0,83,0.00,,,0.00,WUHU216DAVISVP2,2013-01-04 10:08:00,
2013-01-04 05:13:00,20.4,16.0,29.98,ESE,123,0.0,2.0,83,0.00,,,0.00,WUHU216DAVISVP2,2013-01-04 10:13:00,
2013-01-04 05:18:00,20.3,15.9,29.98,ESE,113,0.0,1.0,83,0.00,,,0.00,WUHU216DAVISVP2,2013-01-04 10:18:00,
2013-01-04 05:23:00,20.2,16.1,29.98,West,281,0.0,1.0,84,0.00,,,0.00,WUHU216DAVISVP2,2013-01-04 10:23:00,
2013-01-04 05:28:00,20.6,16.8,29.98,West,281,0.0,1.0,85,0.00,,,0.00,WUHU216DAVISVP2,2013-01-04 10:28:00,
2013-01-04 05:33:00,20.7,16.6,29.98,ESE,114,1.4,2.0,84,0.00,,,0.00,WUHU216DAVISVP2,2013-01-04 10:33:00,
2013-01-04 05:38:00,20.9,17.1,29.98,ESE,108,1.0,2.0,85,0.00,,,0.00,WUHU216DAVISVP2,2013-01-04 10:38:00,
2013-01-04 05:43:00,21.1,17.3,29.98,West,269,0.0,2.0,85,0.00,,,0.00,WUHU216DAVISVP2,2013-01-04 10:43:00,
2013-01-04 05:48:00,21.2,17.4,29.98,ESE,122,1.0,2.0,85,0.00,,,0.00,WUHU216DAVISVP2,2013-01-04 10:48:00,
2013-01-04 05:53:00,22.2,18.4,29.98,ESE,108,1.8,3.0,85,0.00,,,0.00,WUHU216DAVISVP2,2013-01-04 10:53:00,
2013-01-04 05:58:00,23.0,18.9,29.98,ESE,120,1.6,3.0,84,0.00,,,0.00,WUHU216DAVISVP2,2013-01-04 10:58:00,
2013-01-04 06:03:00,22.5,17.8,29.98,West,276,0.0,3.0,82,0.00,,,0.00,WUHU216DAVISVP2,2013-01-04 11:03:00,
2013-01-04 06:08:00,22.1,17.7,29.98,West,276,0.0,3.0,83,0.00,,,0.00,WUHU216DAVISVP2,2013-01-04 11:08:00,
2013-01-04 06:13:00,21.9,17.8,29.98,West,276,0.0,3.0,84,0.00,,,0.00,WUHU216DAVISVP2,2013-01-04 11:13:00,
2013-01-04 06:18:00,21.8,17.7,29.98,West,276,0.0,1.0,84,0.00,,,0.00,WUHU216DAVISVP2,2013-01-04 11:18:00,
2013-01-04 06:23:00,21.7,17.6,29.99,West,276,0.0,1.0,84,0.00,,,0.00,WUHU216DAVISVP2,2013-01-04 11:23:00,
2013-01-04 06:28:00,21.7,17.9,29.99,NNE,30,1.0,1.0,85,0.00,,,0.00,WUHU216DAVISVP2,2013-01-04 11:28:00,
2013-01-04 06:33:00,21.7,17.9,29.99,NE,42,0.0,1.0,85,0.00,,,0.00,WUHU216DAVISVP2,2013-01-04 11:33:00,
2013-01-04 06:38:00,21.8,18.3,30.00,NE,42,0.0,1.0,86,0.00,,,0.00,WUHU216DAVISVP2,2013-01-04 11:38:00,
2013-01-04 06:43:00,21.9,18.1,30.00,NE,35,1.0,1.0,85,0.00,,,0.00,WUHU216DAVISVP2,2013-01-04 11:43:00,
2013-01-04 06:48:00,21.5,17.4,30.00,NNE,33,0.0,1.0,84,0.00,,,0.00,WUHU216DAVISVP2,2013-01-04 11:48:00,
2013-01-04 06:53:00,21.4,17.6,30.00,NNE,33,0.0,1.0,85,0.00,,,0.00,WUHU216DAVISVP2,2013-01-04 11:53:00,
2013-01-04 06:58:00,21.4,17.8,30.00,NNE,33,0.0,1.0,86,0.00,,,0.00,WUHU216DAVISVP2,2013-01-04 11:58:00,
2013-01-04 07:03:00,22.0,18.4,30.00,WSW,250,0.0,3.0,86,0.00,,,0.00,WUHU216DAVISVP2,2013-01-04 12:03:00,
2013-01-04 07:08:00,22.0,17.9,30.01,WNW,288,1.1,3.0,84,0.00,,,0.00,WUHU216DAVISVP2,2013-01-04 12:08:00,
2013-01-04 07:13:00,22.1,18.8,30.00,South,190,1.2,3.0,87,0.00,,,0.00,WUHU216DAVISVP2,2013-01-04 12:13:00,
2013-01-04 07:18:00,23.5,19.4,30.01,SSW,200,1.0,3.0,84,0.00,,,0.00,WUHU216DAVISVP2,2013-01-04 12:18:00,
2013-01-04 07:23:00,25.0,20.3,30.00,NW,311,1.0,3.0,82,0.00,,,0.00,WUHU216DAVISVP2,2013-01-04 12:23:00,
2013-01-04 07:28:00,26.3,20.7,30.00,West,263,5.0,11.0,79,0.00,,,0.00,WUHU216DAVISVP2,2013-01-04 12:28:00,
2013-01-04 07:33:00,28.1,21.5,30.00,WSW,258,2.5,11.0,76,0.00,,,0.00,WUHU216DAVISVP2,2013-01-04 12:33:00,
2013-01-04 07:38:00,29.7,21.8,30.01,WSW,254,3.0,11.0,72,0.00,,,0.00,WUHU216DAVISVP2,2013-01-04 12:38:00,
2013-01-04 07:43:00,30.6,21.6,30.00,WNW,288,11.0,11.0,69,0.00,,,0.00,WUHU216DAVISVP2,2013-01-04 12:43:00,
2013-01-04 07:48:00,31.2,21.9,30.00,West,279,3.5,11.0,68,0.00,,,0.00,WUHU216DAVISVP2,2013-01-04 12:48:00,
2013-01-04 07:53:00,31.5,21.9,30.00,WSW,252,1.6,13.0,67,0.00,,,0.00,WUHU216DAVISVP2,2013-01-04 12:53:00,
2013-01-04 07:58:00,31.7,21.7,30.00,WNW,288,4.1,13.0,66,0.00,,,0.00,WUHU216DAVISVP2,2013-01-04 12:58:00,
2013-01-04 08:03:00,31.6,22.0,30.00,West,276,0.0,13.0,67,0.00,,,0.00,WUHU216DAVISVP2,2013-01-04 13:03:00,
2013-01-04 08:08:00,31.6,22.0,29.99,West,268,0.0,13.0,67,0.00,,,0.00,WUHU216DAVISVP2,2013-01-04 13:08:00,
2013-01-04 08:13:00,31.4,21.7,29.99,WSW,253,0.0,7.0,67,0.00,,,0.00,WUHU216DAVISVP2,2013-01-04 13:13:00,
2013-01-04 08:19:00,31.2,21.9,29.99,SSW,195,0.0,3.0,68,0.00,,,0.00,WUHU216DAVISVP2,2013-01-04 13:19:00,
2013-01-04 08:24:00,31.2,21.6,29.99,SE,143,0.0,1.0,67,0.00,,,0.00,WUHU216DAVISVP2,2013-01-04 13:24:00,
2013-01-04 08:29:00,31.2,21.9,29.99,SSW,212,2.0,3.0,68,0.00,,,0.00,WUHU216DAVISVP2,2013-01-04 13:29:00,
2013-01-04 08:34:00,31.2,21.9,29.99,WSW,242,0.0,5.0,68,0.00,,,0.00,WUHU216DAVISVP2,2013-01-04 13:34:00,
2013-01-04 08:39:00,31.4,22.1,29.99,SW,219,0.0,5.0,68,0.00,,,0.00,WUHU216DAVISVP2,2013-01-04 13:39:00,
2013-01-04 08:44:00,31.7,22.1,29.99,SW,214,0.0,5.0,67,0.00,,,0.00,WUHU216DAVISVP2,2013-01-04 13:44:00,
2013-01-04 08:49:00,31.8,22.5,29.99,SW,236,0.0,1.0,68,0.00,,,0.00,WUHU216DAVISVP2,2013-01-04 13:49:00,
2013-01-04 08:54:00,32.0,22.6,29.99,South,178,0.0,1.0,68,0.00,,,0.00,WUHU216DAVISVP2,2013-01-04 13:54:00,
2013-01-04 08:59:00,32.0,22.7,29.99,SSW,208,0.0,1.0,68,0.00,,,0.00,WUHU216DAVISVP2,2013-01-04 13:59:00,
2013-01-04 09:04:00,32.2,22.9,29.99,SSW,208,0.0,1.0,68,0.00,,,0.00,WUHU216DAVISVP2,2013-01-04 14:04:00,
2013-01-04 09:09:00,32.8,23.1,29.98,SSW,209,0.0,1.0,67,0.00,,,0.00,WUHU216DAVISVP2,2013-01-04 14:09:00,
2013-01-04 09:14:00,32.9,23.2,29.98,WSW,257,0.0,2.0,67,0.00,,,0.00,WUHU216DAVISVP2,2013-01-04 14:14:00,
2013-01-04 09:19:00,33.3,23.6,29.98,SW,225,2.0,2.0,67,0.00,,,0.00,WUHU216DAVISVP2,2013-01-04 14:19:00,
2013-01-04 09:24:00,33.7,23.6,29.98,WSW,245,2.0,4.0,66,0.00,,,0.00,WUHU216DAVISVP2,2013-01-04 14:24:00,
2013-01-04 09:29:00,33.9,23.8,29.98,South,181,1.5,4.0,66,0.00,,,0.00,WUHU216DAVISVP2,2013-01-04 14:29:00,
2013-01-04 09:34:00,34.3,23.8,29.98,SSW,208,1.3,4.0,65,0.00,,,0.00,WUHU216DAVISVP2,2013-01-04 14:34:00,
2013-01-04 09:39:00,34.4,23.9,29.98,WSW,241,1.2,4.0,65,0.00,,,0.00,WUHU216DAVISVP2,2013-01-04 14:39:00,
2013-01-04 09:44:00,34.8,23.9,29.98,SSW,207,2.2,3.0,64,0.00,,,0.00,WUHU216DAVISVP2,2013-01-04 14:44:00,
2013-01-04 09:49:00,35.1,24.2,29.98,SSW,210,1.6,5.0,64,0.00,,,0.00,WUHU216DAVISVP2,2013-01-04 14:49:00,
2013-01-04 09:54:00,35.1,24.2,29.98,WSW,254,1.0,5.0,64,0.00,,,0.00,WUHU216DAVISVP2,2013-01-04 14:54:00,
2013-01-04 09:59:00,35.3,24.0,29.98,West,264,2.0,5.0,63,0.00,,,0.00,WUHU216DAVISVP2,2013-01-04 14:59:00,
2013-01-04 10:04:00,35.6,23.9,29.98,West,273,4.0,8.0,62,0.00,,,0.00,WUHU216DAVISVP2,2013-01-04 15:04:00,
2013-01-04 10:09:00,35.6,23.9,29.98,WSW,254,3.0,8.0,62,0.00,,,0.00,WUHU216DAVISVP2,2013-01-04 15:09:00,
2013-01-04 10:14:00,35.7,24.0,29.97,WNW,299,5.0,8.0,62,0.00,,,0.00,WUHU216DAVISVP2,2013-01-04 15:14:00,
2013-01-04 10:19:00,35.9,23.4,29.97,West,265,4.1,10.0,60,0.00,,,0.00,WUHU216DAVISVP2,2013-01-04 15:19:00,
2013-01-04 10:24:00,36.4,23.9,29.97,West,278,6.0,14.0,60,0.00,,,0.00,WUHU216DAVISVP2,2013-01-04 15:24:00,
2013-01-04 10:29:00,36.6,24.1,29.97,WSW,254,3.1,14.0,60,0.00,,,0.00,WUHU216DAVISVP2,2013-01-04 15:29:00,
2013-01-04 10:34:00,37.0,24.0,29.96,WSW,243,5.0,14.0,59,0.00,,,0.00,WUHU216DAVISVP2,2013-01-04 15:34:00,
2013-01-04 10:39:00,37.1,23.7,29.96,West,262,5.2,14.0,58,0.00,,,0.00,WUHU216DAVISVP2,2013-01-04 15:39:00,
2013-01-04 10:44:00,37.4,24.0,29.95,West,259,5.2,14.0,58,0.00,,,0.00,WUHU216DAVISVP2,2013-01-04 15:44:00,
2013-01-04 10:49:00,37.3,23.9,29.95,West,266,6.5,13.0,58,0.00,,,0.00,WUHU216DAVISVP2,2013-01-04 15:49:00,
2013-01-04 10:54:00,37.3,23.5,29.95,WSW,246,7.0,18.0,57,0.00,,,0.00,WUHU216DAVISVP2,2013-01-04 15:54:00,
2013-01-04 10:59:00,37.5,23.6,29.94,WSW,252,5.0,18.0,57,0.00,,,0.00,WUHU216DAVISVP2,2013-01-04 15:59:00,
2013-01-04 11:04:00,37.5,23.2,29.94,West,269,6.1,18.0,56,0.00,,,0.00,WUHU216DAVISVP2,2013-01-04 16:04:00,
2013-01-04 11:09:00,37.5,23.7,29.94,West,263,3.7,18.0,57,0.00,,,0.00,WUHU216DAVISVP2,2013-01-04 16:09:00,
2013-01-04 11:14:00,37.3,23.9,29.93,West,269,3.5,11.0,58,0.00,,,0.00,WUHU216DAVISVP2,2013-01-04 16:14:00,
2013-01-04 11:18:00,37.1,23.7,29.93,WSW,248,4.0,11.0,58,0.00,,,0.00,WUHU216DAVISVP2,2013-01-04 16:18:00,
2013-01-04 11:23:00,37.1,22.9,29.92,WSW,249,8.0,12.0,56,0.00,,,0.00,WUHU216DAVISVP2,2013-01-04 16:23:00,
2013-01-04 11:28:00,37.1,23.3,29.92,West,263,3.9,12.0,57,0.00,,,0.00,WUHU216DAVISVP2,2013-01-04 16:28:00,
2013-01-04 11:33:00,37.0,23.6,29.92,West,274,3.0,11.0,58,0.00,,,0.00,WUHU216DAVISVP2,2013-01-04 16:33:00,
2013-01-04 11:38:00,37.0,23.6,29.92,WSW,250,4.4,11.0,58,0.00,,,0.00,WUHU216DAVISVP2,2013-01-04 16:38:00,
2013-01-04 11:43:00,36.9,23.1,29.92,WSW,256,4.0,9.0,57,0.00,,,0.00,WUHU216DAVISVP2,2013-01-04 16:43:00,
2013-01-04 11:48:00,37.0,23.2,29.91,SW,235,4.0,9.0,57,0.00,,,0.00,WUHU216DAVISVP2,2013-01-04 16:48:00,
2013-01-04 11:53:00,37.1,23.3,29.91,WSW,255,4.0,8.0,57,0.00,,,0.00,WUHU216DAVISVP2,2013-01-04 16:53:00,
2013-01-04 11:58:00,37.2,22.9,29.90,WSW,241,5.3,11.0,56,0.00,,,0.00,WUHU216DAVISVP2,2013-01-04 16:58:00,
2013-01-04 12:03:00,37.4,23.1,29.90,West,262,3.0,11.0,56,0.00,,,0.00,WUHU216DAVISVP2,2013-01-04 17:03:00,
2013-01-04 12:08:00,38.0,23.3,29.90,WSW,240,2.9,10.0,55,0.00,,,0.00,WUHU216DAVISVP2,2013-01-04 17:08:00,
2013-01-04 12:13:00,38.6,22.9,29.90,SW,228,5.7,11.0,53,0.00,,,0.00,WUHU216DAVISVP2,2013-01-04 17:13:00,
2013-01-04 12:19:00,38.9,23.2,29.89,West,269,3.8,12.0,53,0.00,,,0.00,WUHU216DAVISVP2,2013-01-04 17:19:00,
2013-01-04 12:23:00,39.4,23.7,29.89,WSW,250,2.9,12.0,53,0.00,,,0.00,WUHU216DAVISVP2,2013-01-04 17:23:00,
2013-01-04 12:29:00,39.8,23.1,29.89,West,269,3.0,12.0,51,0.00,,,0.00,WUHU216DAVISVP2,2013-01-04 17:29:00,
2013-01-04 12:34:00,39.6,22.9,29.89,SW,236,4.0,12.0,51,0.00,,,0.00,WUHU216DAVISVP2,2013-01-04 17:34:00,
2013-01-04 12:39:00,39.4,23.7,29.89,West,281,4.0,8.0,53,0.00,,,0.00,WUHU216DAVISVP2,2013-01-04 17:39:00,
2013-01-04 12:44:00,39.1,22.9,29.89,WNW,286,4.1,9.0,52,0.00,,,0.00,WUHU216DAVISVP2,2013-01-04 17:44:00,
2013-01-04 12:49:00,38.9,22.3,29.89,West,267,5.8,9.0,51,0.00,,,0.00,WUHU216DAVISVP2,2013-01-04 17:49:00,
2013-01-04 12:54:00,38.7,22.6,29.89,West,270,4.0,9.0,52,0.00,,,0.00,WUHU216DAVISVP2,2013-01-04 17:54:00,
2013-01-04 12:59:00,38.6,22.9,29.88,WSW,252,2.7,11.0,53,0.00,,,0.00,WUHU216DAVISVP2,2013-01-04 17:59:00,
2013-01-04 13:04:00,38.6,22.9,29.88,West,268,1.3,11.0,53,0.00,,,0.00,WUHU216DAVISVP2,2013-01-04 18:04:00,
2013-01-04 13:09:00,38.6,22.9,29.88,WNW,290,2.7,11.0,53,0.00,,,0.00,WUHU216DAVISVP2,2013-01-04 18:09:00,
2013-01-04 13:14:00,38.8,22.2,29.88,NW,316,4.0,9.0,51,0.00,,,0.00,WUHU216DAVISVP2,2013-01-04 18:14:00,
2013-01-04 13:19:00,38.9,21.8,29.88,West,273,4.3,10.0,50,0.00,,,0.00,WUHU216DAVISVP2,2013-01-04 18:19:00,
2013-01-04 13:24:00,39.0,21.9,29.87,West,260,8.0,11.0,50,0.00,,,0.00,WUHU216DAVISVP2,2013-01-04 18:24:00,
2013-01-04 13:28:00,39.0,21.9,29.88,WNW,283,3.8,11.0,50,0.00,,,0.00,WUHU216DAVISVP2,2013-01-04 18:28:00,
2013-01-04 13:33:00,39.1,22.4,29.87,WNW,293,3.3,11.0,51,0.00,,,0.00,WUHU216DAVISVP2,2013-01-04 18:33:00,
2013-01-04 13:38:00,39.2,22.1,29.87,WNW,289,4.3,11.0,50,0.00,,,0.00,WUHU216DAVISVP2,2013-01-04 18:38:00,
2013-01-04 13:43:00,39.3,23.1,29.87,West,263,2.2,10.0,52,0.00,,,0.00,WUHU216DAVISVP2,2013-01-04 18:43:00,
2013-01-04 13:48:00,39.4,22.2,29.87,WSW,252,3.0,8.0,50,0.00,,,0.00,WUHU216DAVISVP2,2013-01-04 18:48:00,
2013-01-04 13:53:00,39.4,22.2,29.87,West,267,3.8,8.0,50,0.00,,,0.00,WUHU216DAVISVP2,2013-01-04 18:53:00,
2013-01-04 13:59:00,39.3,22.2,29.87,WNW,300,5.0,9.0,50,0.00,,,0.00,WUHU216DAVISVP2,2013-01-04 18:59:00,
2013-01-04 14:03:00,39.1,21.5,29.87,WSW,257,4.6,9.0,49,0.00,,,0.00,WUHU216DAVISVP2,2013-01-04 19:03:00,
2013-01-04 14:08:00,39.0,21.9,29.87,West,267,3.0,9.0,50,0.00,,,0.00,WUHU216DAVISVP2,2013-01-04 19:08:00,
2013-01-04 14:14:00,38.9,22.7,29.87,West,276,2.3,9.0,52,0.00,,,0.00,WUHU216DAVISVP2,2013-01-04 19:14:00,
2013-01-04 14:19:00,38.8,22.2,29.87,West,269,3.0,9.0,51,0.00,,,0.00,WUHU216DAVISVP2,2013-01-04 19:19:00,
2013-01-04 14:23:00,38.9,21.8,29.87,WNW,295,6.0,10.0,50,0.00,,,0.00,WUHU216DAVISVP2,2013-01-04 19:23:00,
2013-01-04 14:28:00,38.9,22.3,29.87,West,279,3.6,10.0,51,0.00,,,0.00,WUHU216DAVISVP2,2013-01-04 19:28:00,
2013-01-04 14:33:00,38.9,21.8,29.87,West,278,5.2,9.0,50,0.00,,,0.00,WUHU216DAVISVP2,2013-01-04 19:33:00,
2013-01-04 14:38:00,39.0,22.4,29.87,West,270,9.0,11.0,51,0.00,,,0.00,WUHU216DAVISVP2,2013-01-04 19:38:00,
2013-01-04 14:44:00,39.0,22.4,29.87,West,261,3.3,11.0,51,0.00,,,0.00,WUHU216DAVISVP2,2013-01-04 19:44:00,
2013-01-04 14:49:00,39.1,22.4,29.87,WSW,245,6.0,11.0,51,0.00,,,0.00,WUHU216DAVISVP2,2013-01-04 19:49:00,
2013-01-04 14:54:00,39.0,22.8,29.87,WNW,286,4.3,11.0,52,0.00,,,0.00,WUHU216DAVISVP2,2013-01-04 19:54:00,
2013-01-04 14:59:00,39.0,21.9,29.87,WNW,287,5.8,13.0,50,0.00,,,0.00,WUHU216DAVISVP2,2013-01-04 19:59:00,
2013-01-04 15:04:00,38.9,21.8,29.87,WNW,282,5.5,13.0,50,0.00,,,0.00,WUHU216DAVISVP2,2013-01-04 20:04:00,
2013-01-04 15:09:00,38.9,21.8,29.87,West,276,2.9,13.0,50,0.00,,,0.00,WUHU216DAVISVP2,2013-01-04 20:09:00,
2013-01-04 15:14:00,39.1,22.0,29.87,WNW,293,6.0,13.0,50,0.00,,,0.00,WUHU216DAVISVP2,2013-01-04 20:14:00,
2013-01-04 15:19:00,39.3,22.6,29.87,West,273,3.6,15.0,51,0.00,,,0.00,WUHU216DAVISVP2,2013-01-04 20:19:00,
2013-01-04 15:24:00,39.5,21.8,29.87,West,280,3.3,15.0,49,0.00,,,0.00,WUHU216DAVISVP2,2013-01-04 20:24:00,
2013-01-04 15:29:00,39.8,22.1,29.87,WNW,293,5.0,15.0,49,0.00,,,0.00,WUHU216DAVISVP2,2013-01-04 20:29:00,
2013-01-04 15:34:00,39.9,22.2,29.87,West,273,4.5,15.0,49,0.00,,,0.00,WUHU216DAVISVP2,2013-01-04 20:34:00,
2013-01-04 15:39:00,39.8,22.2,29.87,WNW,289,5.0,11.0,49,0.00,,,0.00,WUHU216DAVISVP2,2013-01-04 20:39:00,
2013-01-04 15:44:00,39.8,22.7,29.87,NW,316,5.0,10.0,50,0.00,,,0.00,WUHU216DAVISVP2,2013-01-04 20:44:00,
2013-01-04 15:49:00,39.5,21.8,29.87,WNW,303,2.6,10.0,49,0.00,,,0.00,WUHU216DAVISVP2,2013-01-04 20:49:00,
2013-01-04 15:54:00,39.2,21.6,29.87,WNW,297,4.8,8.0,49,0.00,,,0.00,WUHU216DAVISVP2,2013-01-04 20:54:00,
2013-01-04 15:59:00,38.9,21.8,29.87,West,279,4.0,8.0,50,0.00,,,0.00,WUHU216DAVISVP2,2013-01-04 20:59:00,
2013-01-04 16:04:00,38.7,22.1,29.87,SW,224,2.0,7.0,51,0.00,,,0.00,WUHU216DAVISVP2,2013-01-04 21:04:00,
2013-01-04 16:09:00,38.5,21.9,29.87,West,274,2.2,7.0,51,0.00,,,0.00,WUHU216DAVISVP2,2013-01-04 21:09:00,
2013-01-04 16:14:00,38.3,22.2,29.87,WNW,283,3.0,8.0,52,0.00,,,0.00,WUHU216DAVISVP2,2013-01-04 21:14:00,
2013-01-04 16:19:00,38.1,22.0,29.88,WSW,258,3.1,8.0,52,0.00,,,0.00,WUHU216DAVISVP2,2013-01-04 21:19:00,
2013-01-04 16:24:00,37.9,22.3,29.88,WNW,288,4.5,11.0,53,0.00,,,0.00,WUHU216DAVISVP2,2013-01-04 21:24:00,
2013-01-04 16:29:00,37.6,22.0,29.88,West,274,3.4,11.0,53,0.00,,,0.00,WUHU216DAVISVP2,2013-01-04 21:29:00,
2013-01-04 16:34:00,37.4,21.3,29.88,WNW,294,6.0,11.0,52,0.00,,,0.00,WUHU216DAVISVP2,2013-01-04 21:34:00,
2013-01-04 16:39:00,37.3,21.7,29.88,West,280,4.0,12.0,53,0.00,,,0.00,WUHU216DAVISVP2,2013-01-04 21:39:00,
2013-01-04 16:44:00,37.0,21.4,29.88,WNW,297,3.0,12.0,53,0.00,,,0.00,WUHU216DAVISVP2,2013-01-04 21:44:00,
2013-01-04 16:49:00,36.8,21.2,29.87,WNW,299,2.4,12.0,53,0.00,,,0.00,WUHU216DAVISVP2,2013-01-04 21:49:00,
2013-01-04 16:54:00,36.7,21.2,29.88,NW,306,4.4,12.0,53,0.00,,,0.00,WUHU216DAVISVP2,2013-01-04 21:54:00,
2013-01-04 16:59:00,36.6,21.1,29.87,WNW,290,3.5,8.0,53,0.00,,,0.00,WUHU216DAVISVP2,2013-01-04 21:59:00,
2013-01-04 17:04:00,36.5,21.0,29.88,West,281,3.2,8.0,53,0.00,,,0.00,WUHU216DAVISVP2,2013-01-04 22:04:00,
2013-01-04 17:09:00,36.3,21.2,29.88,WNW,295,1.8,8.0,54,0.00,,,0.00,WUHU216DAVISVP2,2013-01-04 22:09:00,
2013-01-04 17:14:00,36.1,21.5,29.87,WNW,299,1.5,7.0,55,0.00,,,0.00,WUHU216DAVISVP2,2013-01-04 22:14:00,
2013-01-04 17:19:00,35.8,21.2,29.88,West,276,1.0,6.0,55,0.00,,,0.00,WUHU216DAVISVP2,2013-01-04 22:19:00,
2013-01-04 17:24:00,35.6,21.0,29.88,West,271,2.0,5.0,55,0.00,,,0.00,WUHU216DAVISVP2,2013-01-04 22:24:00,
2013-01-04 17:29:00,35.4,20.8,29.88,WNW,301,5.8,10.0,55,0.00,,,0.00,WUHU216DAVISVP2,2013-01-04 22:29:00,
2013-01-04 17:34:00,35.3,21.2,29.88,West,260,0.0,11.0,56,0.00,,,0.00,WUHU216DAVISVP2,2013-01-04 22:34:00,
2013-01-04 17:39:00,34.7,21.0,29.88,West,265,0.0,11.0,57,0.00,,,0.00,WUHU216DAVISVP2,2013-01-04 22:39:00,
2013-01-04 17:44:00,34.4,20.8,29.88,NW,311,0.0,11.0,57,0.00,,,0.00,WUHU216DAVISVP2,2013-01-04 22:44:00,
2013-01-04 17:49:00,34.0,20.8,29.89,NW,311,0.0,3.0,58,0.00,,,0.00,WUHU216DAVISVP2,2013-01-04 22:49:00,
2013-01-04 17:54:00,34.2,21.0,29.89,WNW,303,3.4,8.0,58,0.00,,,0.00,WUHU216DAVISVP2,2013-01-04 22:54:00,
2013-01-04 17:59:00,33.9,20.7,29.89,WSW,238,0.0,8.0,58,0.00,,,0.00,WUHU216DAVISVP2,2013-01-04 22:59:00,
2013-01-04 18:04:00,33.2,20.4,29.89,WNW,283,1.0,8.0,59,0.00,,,0.00,WUHU216DAVISVP2,2013-01-04 23:04:00,
2013-01-04 18:09:00,34.1,20.9,29.89,West,274,1.6,10.0,58,0.00,,,0.00,WUHU216DAVISVP2,2013-01-04 23:09:00,
2013-01-04 18:14:00,33.7,20.5,29.89,West,261,1.4,10.0,58,0.00,,,0.00,WUHU216DAVISVP2,2013-01-04 23:14:00,
2013-01-04 18:19:00,33.9,21.1,29.89,West,273,1.3,10.0,59,0.00,,,0.00,WUHU216DAVISVP2,2013-01-04 23:19:00,
2013-01-04 18:24:00,33.4,20.6,29.89,West,280,0.0,10.0,59,0.00,,,0.00,WUHU216DAVISVP2,2013-01-04 23:24:00,
2013-01-04 18:29:00,33.2,20.9,29.89,WNW,293,1.0,4.0,60,0.00,,,0.00,WUHU216DAVISVP2,2013-01-04 23:29:00,
2013-01-04 18:34:00,32.7,20.4,29.89,SW,235,0.0,4.0,60,0.00,,,0.00,WUHU216DAVISVP2,2013-01-04 23:34:00,
2013-01-04 18:39:00,32.1,20.2,29.90,WSW,256,1.0,2.0,61,0.00,,,0.00,WUHU216DAVISVP2,2013-01-04 23:39:00,
2013-01-04 18:44:00,32.4,20.5,29.90,West,279,1.0,4.0,61,0.00,,,0.00,WUHU216DAVISVP2,2013-01-04 23:44:00,
2013-01-04 18:49:00,32.3,20.4,29.90,WSW,256,0.0,4.0,61,0.00,,,0.00,WUHU216DAVISVP2,2013-01-04 23:49:00,
2013-01-04 18:54:00,31.9,20.0,29.90,WSW,256,0.0,4.0,61,0.00,,,0.00,WUHU216DAVISVP2,2013-01-04 23:54:00,
2013-01-04 18:59:00,31.2,20.1,29.90,WSW,256,0.0,4.0,63,0.00,,,0.00,WUHU216DAVISVP2,2013-01-04 23:59:00,
2013-01-04 19:04:00,30.1,19.8,29.90,SW,224,0.0,0.0,65,0.00,,,0.00,WUHU216DAVISVP2,2013-01-05 00:04:00,
2013-01-04 19:09:00,29.3,19.8,29.90,SW,224,0.0,0.0,67,0.00,,,0.00,WUHU216DAVISVP2,2013-01-05 00:09:00,
2013-01-04 19:14:00,28.3,19.1,29.90,SW,217,0.0,0.0,68,0.00,,,0.00,WUHU216DAVISVP2,2013-01-05 00:14:00,
2013-01-04 19:19:00,27.8,19.0,29.90,NW,311,0.0,0.0,69,0.00,,,0.00,WUHU216DAVISVP2,2013-01-05 00:19:00,
2013-01-04 19:24:00,27.3,19.2,29.90,ESE,103,0.0,0.0,71,0.00,,,0.00,WUHU216DAVISVP2,2013-01-05 00:24:00,
2013-01-04 19:29:00,26.5,18.7,29.90,WNW,293,0.0,1.0,72,0.00,,,0.00,WUHU216DAVISVP2,2013-01-05 00:29:00,
2013-01-04 19:34:00,26.5,19.1,29.90,WNW,293,0.0,1.0,73,0.00,,,0.00,WUHU216DAVISVP2,2013-01-05 00:34:00,
2013-01-04 19:39:00,26.3,18.9,29.90,WNW,291,0.0,1.0,73,0.00,,,0.00,WUHU216DAVISVP2,2013-01-05 00:39:00,
2013-01-04 19:44:00,25.6,18.8,29.90,SSW,212,1.0,1.0,75,0.00,,,0.00,WUHU216DAVISVP2,2013-01-05 00:44:00,
2013-01-04 19:49:00,25.2,18.1,29.90,SW,232,1.0,2.0,74,0.00,,,0.00,WUHU216DAVISVP2,2013-01-05 00:49:00,
2013-01-04 19:54:00,25.9,19.1,29.90,West,276,2.6,6.0,75,0.00,,,0.00,WUHU216DAVISVP2,2013-01-05 00:54:00,
2013-01-04 19:59:00,25.9,18.8,29.90,West,271,1.8,6.0,74,0.00,,,0.00,WUHU216DAVISVP2,2013-01-05 00:59:00,
2013-01-04 20:04:00,26.2,19.1,29.90,SSW,205,1.3,6.0,74,0.00,,,0.00,WUHU216DAVISVP2,2013-01-05 01:04:00,
2013-01-04 20:09:00,26.1,18.4,29.90,West,259,1.0,6.0,72,0.00,,,0.00,WUHU216DAVISVP2,2013-01-05 01:09:00,
2013-01-04 20:14:00,25.6,18.5,29.91,NW,312,3.8,5.0,74,0.00,,,0.00,WUHU216DAVISVP2,2013-01-05 01:14:00,
2013-01-04 20:19:00,26.3,19.5,29.91,SE,128,0.0,5.0,75,0.00,,,0.00,WUHU216DAVISVP2,2013-01-05 01:19:00,
2013-01-04 20:24:00,25.9,18.5,29.91,North,3,1.4,5.0,73,0.00,,,0.00,WUHU216DAVISVP2,2013-01-05 01:24:00,
2013-01-04 20:29:00,26.1,19.3,29.91,North,6,0.0,5.0,75,0.00,,,0.00,WUHU216DAVISVP2,2013-01-05 01:29:00,
2013-01-04 20:34:00,25.6,18.5,29.91,North,5,0.0,2.0,74,0.00,,,0.00,WUHU216DAVISVP2,2013-01-05 01:34:00,
2013-01-04 20:39:00,25.1,18.6,29.91,NW,306,0.0,2.0,76,0.00,,,0.00,WUHU216DAVISVP2,2013-01-05 01:39:00,
2013-01-04 20:44:00,25.3,19.1,29.91,West,269,2.0,3.0,77,0.00,,,0.00,WUHU216DAVISVP2,2013-01-05 01:44:00,
2013-01-04 20:49:00,25.6,18.8,29.91,WSW,249,0.0,3.0,75,0.00,,,0.00,WUHU216DAVISVP2,2013-01-05 01:49:00,
2013-01-04 20:54:00,25.5,18.7,29.91,SSE,164,0.0,3.0,75,0.00,,,0.00,WUHU216DAVISVP2,2013-01-05 01:54:00,
2013-01-04 20:59:00,25.9,19.4,29.91,SW,226,1.0,3.0,76,0.00,,,0.00,WUHU216DAVISVP2,2013-01-05 01:59:00,
2013-01-04 21:04:00,26.0,19.2,29.91,SW,226,0.0,1.0,75,0.00,,,0.00,WUHU216DAVISVP2,2013-01-05 02:04:00,
2013-01-04 21:09:00,25.9,19.1,29.91,South,177,0.0,1.0,75,0.00,,,0.00,WUHU216DAVISVP2,2013-01-05 02:09:00,
2013-01-04 21:14:00,25.7,19.2,29.91,South,176,0.0,1.0,76,0.00,,,0.00,WUHU216DAVISVP2,2013-01-05 02:14:00,
2013-01-04 21:19:00,25.8,19.6,29.92,South,177,0.0,0.0,77,0.00,,,0.00,WUHU216DAVISVP2,2013-01-05 02:19:00,
2013-01-04 21:24:00,25.9,19.7,29.92,NW,315,0.0,1.0,77,0.00,,,0.00,WUHU216DAVISVP2,2013-01-05 02:24:00,
2013-01-04 21:29:00,26.3,20.1,29.92,SE,143,1.0,1.0,77,0.00,,,0.00,WUHU216DAVISVP2,2013-01-05 02:29:00,
2013-01-04 21:34:00,26.4,20.5,29.92,North,6,0.0,2.0,78,0.00,,,0.00,WUHU216DAVISVP2,2013-01-05 02:34:00,
2013-01-04 21:39:00,27.1,20.5,29.92,ENE,67,1.1,5.0,76,0.00,,,0.00,WUHU216DAVISVP2,2013-01-05 02:39:00,
2013-01-04 21:44:00,28.0,20.8,29.92,North,9,3.0,5.0,74,0.00,,,0.00,WUHU216DAVISVP2,2013-01-05 02:44:00,
2013-01-04 21:49:00,29.4,20.9,29.92,WSW,258,2.5,5.0,70,0.00,,,0.00,WUHU216DAVISVP2,2013-01-05 02:49:00,
2013-01-04 21:54:00,29.8,20.9,29.92,WNW,285,6.0,6.0,69,0.00,,,0.00,WUHU216DAVISVP2,2013-01-05 02:54:00,
2013-01-04 21:59:00,31.6,21.2,29.92,NW,305,4.4,9.0,65,0.00,,,0.00,WUHU216DAVISVP2,2013-01-05 02:59:00,
2013-01-04 22:04:00,32.5,21.4,29.92,WNW,294,5.0,10.0,63,0.00,,,0.00,WUHU216DAVISVP2,2013-01-05 03:04:00,
2013-01-04 22:09:00,33.0,21.8,29.92,WNW,287,7.0,10.0,63,0.00,,,0.00,WUHU216DAVISVP2,2013-01-05 03:09:00,
2013-01-04 22:14:00,33.0,21.8,29.92,WNW,287,7.0,10.0,63,0.00,,,0.00,WUHU216DAVISVP2,2013-01-05 03:14:00,
2013-01-04 22:19:00,33.0,21.8,29.93,WNW,287,7.0,10.0,63,0.00,,,0.00,WUHU216DAVISVP2,2013-01-05 03:19:00,